x

East Gulf - 208 Mn West Of Naples, Fl (42003) Wave Buoy

1:50am - Sun 23rd Nov 2014 All times are EST. -5 hours from GMT.

  • Sig Wave height 6.2ft
  • Swell Direction
  • Peak Period 8s
  • Average Period 6s
  • Wind
    18mph, 20mph gusts
  • Sea Temp 79°f
  • Air Temp 78°f
  • Sea Pressure 1013.5mb
  • East Gulf - 208 Mn West Of Naples, Fl
  • East Gulf - 208 Mn West Of Naples, Fl

More Historic Weather Station data

Upgrade to MSW Pro to gain access to the past 30 days of data for over 8000 Wavebouys and Weather Stations around the globe.

Join Pro

Comparision Forecast

View Surf forecast
   
Sun 11/23 1:50am 6ft 8s 6s 18 20 mph 1013.5mb 79f 78f
12:50am 6.5ft 7s 6s 18 22 mph 1013.8mb 78f 78f
Sat 11/22 11:50pm 6ft 7s 6s 20 22 mph 1014.6mb 78f 78f
10:50pm 6ft 7s 6s 18 25 mph 1014.7mb 78f 78f
9:50pm 6.5ft 7s 6s 20 25 mph 1014.8mb 78f 78f
8:50pm 7.5ft 7s 6s 18 22 mph 1014.7mb 78f 78f
7:50pm 7ft 7s 6s 20 25 mph 1014.5mb 78f 78f
6:50pm 7.5ft 8s 6s 20 25 mph 1014.1mb 78f 78f
5:50pm 7ft 7s 6s 20 25 mph 1014.3mb 78f 78f
4:50pm 7ft 7s 6s 22 29 mph 1014.2mb 78f 77f
3:50pm 7ft 8s 6s 22 27 mph 1014.2mb 78f 78f
2:50pm 7.5ft 8s 6s 22 27 mph 1014.4mb 78f 77f
1:50pm 8ft 8s 6s 22 27 mph 1015.8mb 78f 77f
12:50pm 7.5ft 8s 6s 25 31 mph 1016.7mb 78f 77f
11:50am 7.5ft 8s 6s 25 29 mph 1018mb 78f 77f
10:50am 8ft 8s 6s 25 31 mph 1018.3mb 78f 77f
9:50am 9ft 8s 6s 22 27 mph 1019.1mb 78f 76f
8:50am 7.5ft 8s 6s 20 27 mph 1019mb 78f 76f
7:50am 7.5ft 8s 6s 22 27 mph 1018.3mb 78f 76f
6:50am 9ft 8s 7s 22 27 mph 1018.3mb 78f 74f
5:50am 8.5ft 8s 6s 18 22 mph 1019.2mb 78f 72f
4:50am 9ft 8s 6s 22 27 mph 1019.1mb 78f 71f
3:50am 8ft 8s 6s 22 27 mph 1019.5mb 77f 71f
2:50am 8ft 8s 6s 25 31 mph 1020mb 77f 71f
1:50am 8ft 8s 6s 25 29 mph 1020.5mb 77f 71f
12:50am 8ft 7s 6s 22 27 mph 1020.7mb 77f 71f
Fri 11/21 11:50pm 7ft 7s 6s 27 31 mph 1021mb 78f 71f
9:50pm 7ft 7s 5s 27 31 mph 1020.9mb 78f 74f
8:50pm 6.5ft 8s 5s 25 29 mph 1020.9mb 78f 74f
7:50pm 6.5ft 7s 5s 27 31 mph 1020.7mb 78f 74f
6:50pm 7ft 7s 6s 25 29 mph 1020.4mb 78f 74f
5:50pm 6ft 7s 5s 22 27 mph 1020.2mb 78f 74f
4:50pm 6ft 6s 5s 22 27 mph 1020.1mb 78f 74f
3:50pm 5ft 7s 5s 25 27 mph 1019.7mb 78f 74f
2:50pm 5ft 7s 5s 22 27 mph 1019.9mb 77f 73f
1:50pm 5ft 6s 5s 20 22 mph 1020.4mb 77f 74f
12:50pm 5ft 6s 5s 20 25 mph 1020.9mb 77f 74f
11:50am 5ft 6s 5s 22 25 mph 1021.6mb 77f 73f
10:50am 4.5ft 5s 4s 22 27 mph 1022.2mb 76f 73f
9:50am 4.5ft 5s 5s 20 25 mph 1022.3mb 77f 73f
8:50am 4.5ft 6s 5s 20 25 mph 1021.9mb 76f 73f
7:50am 4.5ft 6s 5s 20 25 mph 1021mb 76f 73f
6:50am 4.5ft 6s 5s 20 22 mph 1020.4mb 76f 73f
5:50am 4.5ft 6s 5s 16 20 mph 1020.3mb 76f 73f
4:50am 5ft 7s 5s 18 20 mph 1019.9mb 76f 73f
3:50am 4.5ft 6s 5s 16 20 mph 1020.2mb 76f 72f
2:50am 5ft 7s 5s 16 20 mph 1020.2mb 76f 72f
1:50am 4.5ft 6s 5s 18 20 mph 1020.6mb 78f 72f
12:50am 4.5ft 7s 5s 16 20 mph 1021.1mb 78f 71f
Thu 11/20 11:50pm 4.5ft 6s 5s 16 18 mph 1021.4mb 78f 71f
10:50pm 4.5ft 6s 5s 16 20 mph 1021.7mb 78f 71f
9:50pm 4.5ft 6s 5s 16 20 mph 1021.7mb 77f 70f
8:50pm 4ft 6s 5s 18 22 mph 1021.5mb 77f 70f
7:50pm 4ft 6s 5s 18 22 mph 1021mb 77f 69f
6:50pm 4ft 6s 4s 18 22 mph 1020.9mb 76f 69f
5:50pm 4.5ft 6s 5s 18 25 mph 1020.6mb 76f 69f
4:50pm 4.5ft 6s 5s 18 22 mph 1020.7mb 76f 69f
3:50pm 4.5ft 6s 4s 18 25 mph 1020.3mb 76f 69f
2:50pm 4ft 6s 4s 18 25 mph 1020.7mb 76f 68f
1:50pm 3.5ft 6s 4s 18 25 mph 1021.1mb 76f 68f
12:50pm 4.5ft 5s 4s 20 25 mph 1022.1mb 76f 67f
11:50am 3.5ft 6s 4s 20 25 mph 1023.1mb 76f 68f
10:50am 4ft 6s 4s 18 22 mph 1024mb 76f 68f
9:50am 4ft 6s 4s 18 22 mph 1024mb 76f 68f
8:50am 4.5ft 5s 4s 18 22 mph 1023.5mb 76f 67f
7:50am 4.5ft 6s 4s 20 25 mph 1022.8mb 76f 67f
6:50am 4.5ft 6s 4s 20 25 mph 1022.3mb 77f 67f
5:50am 4.5ft 6s 5s 20 25 mph 1022mb 77f 66f
4:50am 3.5ft 7s 4s 20 27 mph 1022.1mb 78f 66f
3:50am 4ft 7s 5s 18 22 mph 1022.4mb 78f 66f
2:50am 3.5ft 7s 5s 18 22 mph 1022.9mb 78f 66f
1:50am 4ft 6s 5s 18 25 mph 1023.4mb 78f 66f
12:50am 4ft 7s 5s 20 25 mph 1024mb 77f 66f
Wed 11/19 11:50pm 4.5ft 7s 5s 18 25 mph 1024.5mb 76f 66f
10:50pm 5ft 7s 5s 18 22 mph 1024.5mb 76f 66f
9:50pm 4.5ft 7s 5s 18 22 mph 1024.5mb 77f 65f
8:50pm 4.5ft 7s 5s 20 27 mph 1024.3mb 77f 65f
7:50pm 5.5ft 7s 5s 20 27 mph 1024mb 77f 64f
6:50pm 5ft 7s 5s 22 27 mph 1023.7mb 77f 64f
5:50pm 5ft 7s 5s 22 25 mph 1023.5mb 77f 64f
4:50pm 5.5ft 7s 5s 20 27 mph 1023.5mb 77f 63f
3:50pm 5ft 7s 5s 20 27 mph 1023.7mb 77f 63f
2:50pm 5ft 7s 5s 20 27 mph 1024mb 77f 62f
1:50pm 5.5ft 7s 5s 18 27 mph 1024.4mb 77f 62f
12:50pm 6.5ft 7s 5s 18 22 mph 1025.5mb 77f 63f
11:50am 6ft 8s 5s 22 27 mph 1026.5mb 77f 63f
10:50am 7ft 8s 6s 22 27 mph 1027.1mb 77f 64f
9:50am 6.5ft 8s 5s 20 25 mph 1027.2mb 77f 64f
8:50am 7ft 8s 5s 20 29 mph 1026.9mb 77f 64f
7:50am 7ft 8s 5s 22 27 mph 1025.9mb 77f 64f